LIRALIRP

Guest
Details From LIRA - CIAMPINO
To LIRP - PISA
Flight Number -
Tags decoded
Created
Modified
Stats Distance 183 nm / 338 km
Max Altitude 0 ft / 0 m
Waypoints 5
Social Downloads 0
Likes 0
Share VATSIM

Download

Looking for another format? Having issues loading an existing format? Contact us
Advertisement - Login to hide

Notes

Requested: LIRA OST GILIO M729 NORNI LIRP Unmatched points: M729

Route

LIRA OST GILIO NORNI LIRP

ID Type Via Altitude Latitude Longitude Leg Dist Tot Dist Heading (true) Name
O LIRA APT - 0 ft / 0 m 41.79923˚ 12.59492˚ - 0 nm - CIAMPINO
OST NDB - 0 ft / 0 m 41.80528˚ 12.23639˚ 16 nm 16 nm 271° / 271° OSTIA NDB
GILIO FIX - 0 ft / 0 m 42.36667˚ 10.92611˚ 67 nm 83 nm 300° / 300° -
NORNI FIX - 0 ft / 0 m 43.27889˚ 9.97972˚ 68 nm 152 nm 323° / 322° -
O LIRP APT - 0 ft / 0 m 43.68388˚ 10.39272˚ 30 nm 182 nm 36° / 37° PISA

Altitude Profile

Advertisement - Login to hide

Weather


0- 5 10 15 20 25 30 35+ Temperature / ° C

Clouds and Precipitation
Forecast for 2017-12-16 12:00 UTC. Updated 2 hours ago

Ground ~20,000 ft ~40,000 ft Winds

LIRA

Details ICAO LIRA (CIA)
Name CIAMPINO
Region Italy
Timezone Europe/Rome (UTC+1.0)
Stats Elevation 427 ft / 130 m (AMSL)
Location 41.799228° 12.594917°
Runways 1
Magnetic Variation 3.058° E

METAR

LIRA 161250Z 23007KT 190V270 9999 FEW020 BKN035 12/05 Q1005

Decode

TAF

TAF LIRA 161100Z 1612/1712 24010KT 9999 SCT030 BECMG 1616/1618 VRB05KT TEMPO 1618/1622 RA BECMG 1621/1623 02010KT

Decode

Departure Runways

ID Width Length Bearing (true) Bearing (mag) Surface Threshold Offset Overrun Length
15 154 ft / 47 m 7,246 ft / 2,209 m 152.79° 149.73° Asphalt 0 ft / 0 m 0 ft / 0 m
33 154 ft / 47 m 7,246 ft / 2,209 m 332.80° 329.74° Asphalt 0 ft / 0 m 0 ft / 0 m

LIRP

Details ICAO LIRP (PSA)
Name PISA
Region Italy
Timezone Europe/Rome (UTC+1.0)
Stats Elevation 6 ft / 2 m (AMSL)
Location 43.683883° 10.392724°
Runways 2
Magnetic Variation 2.704° E

METAR

LIRP 161245Z 09013KT 9999 TS FEW020CB BKN030 09/04 Q1003 TEMPO 5000 TSRA

Decode

TAF

TAF LIRP 161100Z 1612/1712 21015KT 9999 SCT030 SCT040 TEMPO 1612/1621 5000 RA BR PROB30 TEMPO 1615/1621 2000 TSRA FEW020CB BKN030 BECMG 1621/1623 09007KT

Decode

Destination Runways

ID Width Length Bearing (true) Bearing (mag) Surface Threshold Offset Overrun Length
04L 141 ft / 43 m 9,158 ft / 2,791 m 36.70° 34.00° Asphalt 979 ft / 298 m 0 ft / 0 m
04R 148 ft / 45 m 9,819 ft / 2,993 m 36.72° 34.02° Asphalt 490 ft / 149 m 0 ft / 0 m
22L 148 ft / 45 m 9,819 ft / 2,993 m 216.73° 214.03° Asphalt 843 ft / 257 m 0 ft / 0 m
22R 141 ft / 43 m 9,158 ft / 2,791 m 216.72° 214.02° Asphalt 0 ft / 0 m 0 ft / 0 m

Approach Navaids

Runway Type Ident Frequency Range Bearing (true) Bearing (mag) Slope Elevation
04R Localiser IPI 109.70 MHz 18 nm / 33 km 36.76° 34.06° - 7 ft / 2 m (AMSL)
04R Glidescope IPI 109.70 MHz 10 nm / 19 km 36.72° 34.02° 3.00° 3 ft / 1 m (AMSL)

Popular Alternatives